createdAt,value
2019-06-26T00:01:11.769Z,27.20
2019-06-26T00:03:39.795Z,27.20
2019-06-26T00:06:07.661Z,27.10
2019-06-26T00:08:35.601Z,27.10
2019-06-26T00:11:03.603Z,26.90
2019-06-26T00:13:31.463Z,26.80
2019-06-26T00:15:59.426Z,26.80
2019-06-26T00:18:27.326Z,26.50
2019-06-26T00:20:55.202Z,26.70
2019-06-26T00:23:23.070Z,26.40
2019-06-26T00:25:50.938Z,26.50
2019-06-26T00:28:18.874Z,26.30
2019-06-26T00:30:46.936Z,26.70
2019-06-26T00:33:14.892Z,26.70
2019-06-26T00:35:42.822Z,26.80
2019-06-26T00:38:10.720Z,26.80
2019-06-26T00:40:38.641Z,26.70
2019-06-26T00:43:06.862Z,26.40
2019-06-26T00:45:34.800Z,26.60
2019-06-26T00:48:02.942Z,26.50
2019-06-26T00:50:30.791Z,26.50
2019-06-26T00:52:58.661Z,26.30
2019-06-26T00:55:26.505Z,26.30
2019-06-26T00:57:54.371Z,26.30
2019-06-26T01:00:31.747Z,26.10
2019-06-26T01:02:59.654Z,26.10
2019-06-26T01:05:28.719Z,26.20
2019-06-26T01:07:56.618Z,25.90
2019-06-26T01:10:25.085Z,25.80
2019-06-26T01:12:52.968Z,26.00
2019-06-26T01:15:20.884Z,26.10
2019-06-26T01:17:48.793Z,25.90
2019-06-26T01:20:16.786Z,25.80
2019-06-26T01:22:44.673Z,25.60
2019-06-26T01:25:12.875Z,25.60
2019-06-26T01:27:40.776Z,25.80
2019-06-26T01:30:09.402Z,26.00
2019-06-26T01:32:37.296Z,25.90
2019-06-26T01:35:05.889Z,25.80
2019-06-26T01:37:33.789Z,25.70
2019-06-26T01:40:01.730Z,25.70
2019-06-26T01:42:29.562Z,25.70
2019-06-26T01:44:57.618Z,25.70
2019-06-26T01:47:25.456Z,25.80
2019-06-26T01:49:53.367Z,25.50
2019-06-26T01:52:21.382Z,25.50
2019-06-26T01:54:49.347Z,25.80
2019-06-26T01:57:17.212Z,25.60
2019-06-26T01:59:45.131Z,25.60
2019-06-26T02:02:14.137Z,25.50
2019-06-26T02:04:42.098Z,25.60
2019-06-26T02:07:10.001Z,25.50
2019-06-26T02:09:37.914Z,25.60
2019-06-26T02:12:05.871Z,25.70
2019-06-26T02:14:33.875Z,25.80
2019-06-26T02:17:02.981Z,25.60
2019-06-26T02:19:30.900Z,25.60
2019-06-26T02:21:58.709Z,25.60
2019-06-26T02:24:26.561Z,25.60
2019-06-26T02:26:54.425Z,25.20
2019-06-26T02:29:22.349Z,25.30
2019-06-26T02:31:50.187Z,25.40
2019-06-26T02:34:18.140Z,25.10
2019-06-26T02:36:46.006Z,25.20
2019-06-26T02:39:14.944Z,25.20
2019-06-26T02:41:42.776Z,25.30
2019-06-26T02:44:10.629Z,25.00
2019-06-26T02:46:38.494Z,25.20
2019-06-26T02:49:06.382Z,25.00
2019-06-26T02:51:34.259Z,25.20
2019-06-26T02:54:02.154Z,25.00
2019-06-26T02:56:30.083Z,24.60
2019-06-26T02:58:57.986Z,25.00
2019-06-26T03:01:25.900Z,25.20
2019-06-26T03:03:53.745Z,24.90
2019-06-26T03:06:21.714Z,24.30
2019-06-26T03:08:49.635Z,24.40
2019-06-26T03:11:17.551Z,24.60
2019-06-26T03:13:45.383Z,24.50
2019-06-26T03:16:14.156Z,24.80
2019-06-26T03:18:42.021Z,25.00
2019-06-26T03:21:09.943Z,24.90
2019-06-26T03:23:37.756Z,24.70
2019-06-26T03:26:05.693Z,24.90
2019-06-26T03:28:33.682Z,24.60
2019-06-26T03:31:02.205Z,24.80
2019-06-26T03:33:30.115Z,24.90
2019-06-26T03:35:58.029Z,24.50
2019-06-26T03:38:26.041Z,24.60
2019-06-26T03:40:53.975Z,24.30
2019-06-26T03:43:21.991Z,24.30
2019-06-26T03:45:49.906Z,24.30
2019-06-26T03:48:17.850Z,24.60
2019-06-26T03:50:45.742Z,24.50
2019-06-26T03:53:13.701Z,24.60
2019-06-26T03:55:41.682Z,24.80
2019-06-26T03:58:09.547Z,25.00
2019-06-26T04:00:40.218Z,25.00
2019-06-26T04:03:08.329Z,25.20
2019-06-26T04:05:36.329Z,25.10
2019-06-26T04:08:04.376Z,25.20
2019-06-26T04:10:32.419Z,25.70
2019-06-26T04:13:00.378Z,25.80
2019-06-26T04:15:41.521Z,25.50
2019-06-26T04:17:58.134Z,25.20
2019-06-26T04:20:26.141Z,25.20
2019-06-26T04:22:54.028Z,25.10
2019-06-26T04:25:22.006Z,25.60
2019-06-26T04:27:49.880Z,25.30
2019-06-26T04:30:18.083Z,25.40
2019-06-26T04:32:45.997Z,24.90
2019-06-26T04:35:15.995Z,25.50
2019-06-26T04:37:43.969Z,25.30
2019-06-26T04:40:13.581Z,25.50
2019-06-26T04:42:41.466Z,25.20
2019-06-26T04:45:10.136Z,25.80
2019-06-26T04:47:37.970Z,26.30
2019-06-26T04:50:06.291Z,25.10
2019-06-26T04:52:34.202Z,25.50
2019-06-26T04:55:03.707Z,25.50
2019-06-26T04:57:31.644Z,26.10
2019-06-26T04:59:59.789Z,25.80
2019-06-26T05:02:29.009Z,26.50
2019-06-26T05:04:56.846Z,26.70
2019-06-26T05:07:24.789Z,26.80
2019-06-26T05:09:52.689Z,26.50
2019-06-26T05:12:20.636Z,26.60
2019-06-26T05:14:48.523Z,27.30
2019-06-26T05:17:16.429Z,26.20
2019-06-26T05:19:45.038Z,26.30
2019-06-26T05:22:12.918Z,26.50
2019-06-26T05:24:40.821Z,26.00
2019-06-26T05:27:08.807Z,27.00
2019-06-26T05:29:36.730Z,27.10
2019-06-26T05:32:04.804Z,27.00
2019-06-26T05:34:32.671Z,27.40
2019-06-26T05:37:00.569Z,27.20
2019-06-26T05:39:28.651Z,27.30
2019-06-26T05:41:56.495Z,28.10
2019-06-26T05:44:24.370Z,27.80
2019-06-26T05:46:52.235Z,28.10
2019-06-26T05:49:20.120Z,27.60
2019-06-26T05:51:47.998Z,27.40
2019-06-26T05:54:15.904Z,27.60
2019-06-26T05:56:45.451Z,27.40
2019-06-26T05:59:13.525Z,27.90
2019-06-26T06:01:41.382Z,27.70
2019-06-26T06:04:22.668Z,27.70
2019-06-26T06:06:50.612Z,28.70
2019-06-26T06:09:18.449Z,28.10
2019-06-26T06:11:46.333Z,28.90
2019-06-26T06:14:14.230Z,28.90
2019-06-26T06:16:47.431Z,27.40
2019-06-26T06:19:11.930Z,28.90
2019-06-26T06:21:39.809Z,28.00
2019-06-26T06:24:07.732Z,28.10
2019-06-26T06:26:35.771Z,28.70
2019-06-26T06:29:03.763Z,28.20
2019-06-26T06:31:31.641Z,29.40
2019-06-26T06:34:00.667Z,29.40
2019-06-26T06:36:28.804Z,29.10
2019-06-26T06:38:56.778Z,29.90
2019-06-26T06:41:24.662Z,30.10
2019-06-26T06:43:52.528Z,30.80
2019-06-26T06:46:20.398Z,30.20
2019-06-26T06:48:48.280Z,30.10
2019-06-26T06:51:16.220Z,29.20
2019-06-26T06:53:44.290Z,29.50
2019-06-26T06:56:12.274Z,31.10
2019-06-26T06:58:40.166Z,29.20
2019-06-26T07:01:08.166Z,30.60
2019-06-26T07:03:36.264Z,31.30
2019-06-26T07:06:04.193Z,31.80
2019-06-26T07:08:32.215Z,32.50
2019-06-26T07:11:00.107Z,32.40
2019-06-26T07:13:31.060Z,31.00
2019-06-26T07:15:58.955Z,31.80
2019-06-26T07:18:27.019Z,32.40
2019-06-26T07:20:54.975Z,32.60
2019-06-26T07:23:22.842Z,32.40
2019-06-26T07:25:51.042Z,32.10
2019-06-26T07:28:19.687Z,31.60
2019-06-26T07:30:47.880Z,31.70
2019-06-26T07:33:15.878Z,31.50
2019-06-26T07:35:43.984Z,32.70
2019-06-26T07:38:11.941Z,33.40
2019-06-26T07:40:40.140Z,33.60
2019-06-26T07:43:08.094Z,33.60
2019-06-26T07:45:36.473Z,34.10
2019-06-26T07:48:04.471Z,34.30
2019-06-26T07:50:32.818Z,34.30
2019-06-26T07:53:01.513Z,34.20
2019-06-26T07:55:29.482Z,34.20
2019-06-26T07:57:57.583Z,34.30
2019-06-26T08:00:26.486Z,34.20
2019-06-26T08:02:54.405Z,34.40
2019-06-26T08:05:22.390Z,34.50
2019-06-26T08:07:50.225Z,33.70
2019-06-26T08:10:18.852Z,33.30
2019-06-26T08:12:47.029Z,33.50
2019-06-26T08:15:15.235Z,33.70
2019-06-26T08:17:59.426Z,34.00
2019-06-26T08:20:14.014Z,34.40
2019-06-26T08:22:42.049Z,32.50
2019-06-26T08:25:10.343Z,33.50
2019-06-26T08:27:38.503Z,33.40
2019-06-26T08:30:06.980Z,34.20
2019-06-26T08:32:34.920Z,34.00
2019-06-26T08:35:03.064Z,33.70
2019-06-26T08:37:31.045Z,33.30
2019-06-26T08:39:58.935Z,32.90
2019-06-26T08:42:26.892Z,33.90
2019-06-26T08:44:54.940Z,34.70
2019-06-26T08:47:22.885Z,35.10
2019-06-26T08:49:50.882Z,34.30
2019-06-26T08:52:18.872Z,35.30
2019-06-26T08:54:46.830Z,34.20
2019-06-26T08:57:14.785Z,34.80
2019-06-26T08:59:42.694Z,35.10
2019-06-26T09:02:10.827Z,35.10
2019-06-26T09:04:38.808Z,35.90
2019-06-26T09:07:06.869Z,35.40
2019-06-26T09:09:35.015Z,34.90
2019-06-26T09:12:03.016Z,35.30
2019-06-26T09:14:33.039Z,35.80
2019-06-26T09:17:01.262Z,36.10
2019-06-26T09:19:30.386Z,35.30
2019-06-26T09:21:58.480Z,33.90
2019-06-26T09:24:26.473Z,35.60
2019-06-26T09:26:55.341Z,35.90
2019-06-26T09:29:24.117Z,36.30
2019-06-26T09:31:52.205Z,35.80
2019-06-26T09:34:20.093Z,35.70
2019-06-26T09:36:47.993Z,35.80
2019-06-26T09:39:16.116Z,35.10
2019-06-26T09:41:44.169Z,35.80
2019-06-26T09:44:12.297Z,36.00
2019-06-26T09:46:40.259Z,35.80
2019-06-26T09:49:08.263Z,36.50
2019-06-26T09:51:36.327Z,35.50
2019-06-26T09:54:04.389Z,36.00
2019-06-26T09:56:32.439Z,36.40
2019-06-26T09:59:00.474Z,36.00
2019-06-26T10:01:29.887Z,35.70
2019-06-26T10:03:57.852Z,35.00
2019-06-26T10:06:25.713Z,35.20
2019-06-26T10:08:54.564Z,35.50
2019-06-26T10:11:22.666Z,35.80
2019-06-26T10:13:50.695Z,35.80
2019-06-26T10:16:18.966Z,36.40
2019-06-26T10:18:46.921Z,35.10
2019-06-26T10:21:15.007Z,36.20
2019-06-26T10:23:42.974Z,36.80
2019-06-26T10:26:10.903Z,37.40
2019-06-26T10:28:38.975Z,36.80
2019-06-26T10:31:08.496Z,35.90
2019-06-26T10:33:36.568Z,36.70
2019-06-26T10:36:04.544Z,37.10
2019-06-26T10:38:32.480Z,36.20
2019-06-26T10:41:01.403Z,37.00
2019-06-26T10:43:29.294Z,35.50
2019-06-26T10:45:57.257Z,35.20
2019-06-26T10:48:25.138Z,36.60
2019-06-26T10:50:58.394Z,37.10
2019-06-26T10:53:22.804Z,36.80
2019-06-26T10:55:50.752Z,36.70
2019-06-26T10:58:18.696Z,37.40
2019-06-26T11:00:46.708Z,37.60
2019-06-26T11:03:14.724Z,36.90
2019-06-26T11:05:43.250Z,36.20
2019-06-26T11:08:11.181Z,35.50
2019-06-26T11:10:39.199Z,37.20
2019-06-26T11:13:07.245Z,36.70
2019-06-26T11:15:35.197Z,36.80
2019-06-26T11:18:03.139Z,36.60
2019-06-26T11:20:31.321Z,36.80
2019-06-26T11:22:59.442Z,37.90
2019-06-26T11:25:27.379Z,38.70
2019-06-26T11:27:55.313Z,39.00
2019-06-26T11:30:24.274Z,38.20
2019-06-26T11:32:52.197Z,36.80
2019-06-26T11:35:20.128Z,37.80
2019-06-26T11:37:48.090Z,38.10
2019-06-26T11:40:16.103Z,38.80
2019-06-26T11:42:44.188Z,39.40
2019-06-26T11:45:12.571Z,39.90
2019-06-26T11:47:40.473Z,38.60
2019-06-26T11:50:09.124Z,38.50
2019-06-26T11:52:37.032Z,38.50
2019-06-26T11:55:05.599Z,37.60
2019-06-26T11:57:33.493Z,37.60
2019-06-26T12:00:01.959Z,36.60
2019-06-26T12:02:30.210Z,37.40
2019-06-26T12:04:58.086Z,38.20
2019-06-26T12:07:26.195Z,37.40
2019-06-26T12:09:54.303Z,38.10
2019-06-26T12:12:22.159Z,38.60
2019-06-26T12:14:51.187Z,38.60
2019-06-26T12:17:19.234Z,39.50
2019-06-26T12:19:47.356Z,38.50
2019-06-26T12:22:18.015Z,39.90
2019-06-26T12:24:45.905Z,40.20
2019-06-26T12:27:13.791Z,40.50
2019-06-26T12:29:41.700Z,40.30
2019-06-26T12:32:09.738Z,39.10
2019-06-26T12:34:37.613Z,39.10
2019-06-26T12:37:05.517Z,38.10
2019-06-26T12:39:33.421Z,38.70
2019-06-26T12:42:01.396Z,39.30
2019-06-26T12:44:29.401Z,39.30
2019-06-26T12:46:57.275Z,38.60
2019-06-26T12:49:25.373Z,37.50
2019-06-26T12:51:53.356Z,37.30
2019-06-26T12:54:21.264Z,37.90
2019-06-26T12:56:49.177Z,39.10
2019-06-26T12:59:17.093Z,40.40
2019-06-26T13:01:44.995Z,39.90
2019-06-26T13:04:12.949Z,40.70
2019-06-26T13:06:40.807Z,38.60
2019-06-26T13:09:08.741Z,39.80
2019-06-26T13:11:36.835Z,40.70
2019-06-26T13:14:04.908Z,40.60
2019-06-26T13:16:32.765Z,41.70
2019-06-26T13:19:00.692Z,39.00
2019-06-26T13:21:28.575Z,39.80
2019-06-26T13:23:56.397Z,39.20
2019-06-26T13:26:24.344Z,40.80
2019-06-26T13:28:52.208Z,41.00
2019-06-26T13:31:20.155Z,40.80
2019-06-26T13:33:47.992Z,42.50
2019-06-26T13:36:16.010Z,42.80
2019-06-26T13:38:43.922Z,42.80
2019-06-26T13:41:11.874Z,42.90
2019-06-26T13:43:40.807Z,43.40
2019-06-26T13:46:08.701Z,44.20
2019-06-26T13:48:36.666Z,44.30
2019-06-26T13:51:09.441Z,43.40
2019-06-26T13:53:34.270Z,41.80
2019-06-26T13:56:02.529Z,44.30
2019-06-26T13:58:30.411Z,41.40
2019-06-26T14:00:58.308Z,39.80
2019-06-26T14:03:26.129Z,42.00
2019-06-26T14:05:53.990Z,40.40
2019-06-26T14:08:21.805Z,40.40
2019-06-26T14:10:49.664Z,40.00
2019-06-26T14:13:17.672Z,43.80
2019-06-26T14:15:45.513Z,43.00
2019-06-26T14:18:13.393Z,44.10
2019-06-26T14:20:41.270Z,43.10
2019-06-26T14:23:09.244Z,41.70
2019-06-26T14:25:37.185Z,40.90
2019-06-26T14:28:05.054Z,41.70
2019-06-26T14:30:32.926Z,42.10
2019-06-26T14:33:00.762Z,43.10
2019-06-26T14:35:28.586Z,40.70
2019-06-26T14:37:56.426Z,41.00
2019-06-26T14:40:24.345Z,40.90
2019-06-26T14:42:52.189Z,42.80
2019-06-26T14:45:20.119Z,44.00
2019-06-26T14:47:47.934Z,44.20
2019-06-26T14:50:16.138Z,41.90
2019-06-26T14:52:46.036Z,41.90
2019-06-26T14:55:14.170Z,42.40
2019-06-26T14:57:42.055Z,44.10
2019-06-26T15:00:10.234Z,46.20
2019-06-26T15:02:38.107Z,40.70
2019-06-26T15:05:06.759Z,40.20
2019-06-26T15:07:34.677Z,40.70
2019-06-26T15:10:02.533Z,41.00
2019-06-26T15:12:30.368Z,39.70
2019-06-26T15:14:58.181Z,39.10
2019-06-26T15:17:26.017Z,40.40
2019-06-26T15:19:53.831Z,39.80
2019-06-26T15:22:22.820Z,39.30
2019-06-26T15:24:50.681Z,41.30
2019-06-26T15:27:18.822Z,40.40
2019-06-26T15:29:46.723Z,39.50
2019-06-26T15:32:14.530Z,39.80
2019-06-26T15:34:42.457Z,39.70
2019-06-26T15:37:10.302Z,41.40
2019-06-26T15:39:38.219Z,40.70
2019-06-26T15:42:06.107Z,42.80
2019-06-26T15:44:33.973Z,43.10
2019-06-26T15:47:01.813Z,43.70
2019-06-26T15:49:29.694Z,41.10
2019-06-26T15:52:13.769Z,42.10
2019-06-26T15:54:27.349Z,40.40
2019-06-26T15:56:55.232Z,39.30
2019-06-26T15:59:23.094Z,38.70
2019-06-26T16:01:50.934Z,38.80
2019-06-26T16:04:22.765Z,39.80
2019-06-26T16:06:50.604Z,39.00
2019-06-26T16:09:18.435Z,41.00
2019-06-26T16:11:46.281Z,41.60
2019-06-26T16:14:14.195Z,41.10
2019-06-26T16:16:43.960Z,42.50
2019-06-26T16:19:15.052Z,41.20
2019-06-26T16:21:42.925Z,43.50
2019-06-26T16:24:10.738Z,43.70
2019-06-26T16:26:38.689Z,43.40
2019-06-26T16:29:06.499Z,42.90
2019-06-26T16:31:34.713Z,42.60
2019-06-26T16:34:02.549Z,42.40
2019-06-26T16:36:30.422Z,42.60
2019-06-26T16:38:58.284Z,40.80
2019-06-26T16:41:26.170Z,43.50
2019-06-26T16:43:54.076Z,44.10
2019-06-26T16:46:21.968Z,42.90
2019-06-26T16:48:49.795Z,42.60
2019-06-26T16:51:17.689Z,40.40
2019-06-26T16:53:45.575Z,40.50
2019-06-26T16:56:13.469Z,41.00
2019-06-26T16:58:41.366Z,42.50
2019-06-26T17:01:09.282Z,41.00
2019-06-26T17:03:37.184Z,40.30
2019-06-26T17:06:05.161Z,40.40
2019-06-26T17:08:34.132Z,39.30
2019-06-26T17:11:02.166Z,38.90
2019-06-26T17:13:29.991Z,39.70
2019-06-26T17:15:57.899Z,38.90
2019-06-26T17:18:25.764Z,39.60
2019-06-26T17:20:53.673Z,38.30
2019-06-26T17:23:21.547Z,39.50
2019-06-26T17:25:49.517Z,39.90
2019-06-26T17:28:17.316Z,40.30
2019-06-26T17:30:46.317Z,40.60
2019-06-26T17:33:14.420Z,40.00
2019-06-26T17:35:42.339Z,39.60
2019-06-26T17:38:10.209Z,39.60
2019-06-26T17:40:38.117Z,40.10
2019-06-26T17:43:12.251Z,40.30
2019-06-26T17:45:35.921Z,39.10
2019-06-26T17:48:03.793Z,39.40
2019-06-26T17:50:34.835Z,39.90
2019-06-26T17:53:02.752Z,40.00
2019-06-26T17:55:30.616Z,39.20
2019-06-26T17:57:58.616Z,39.10
2019-06-26T18:00:34.026Z,39.40
2019-06-26T18:03:02.094Z,39.00
2019-06-26T18:05:30.121Z,39.30
2019-06-26T18:07:58.147Z,39.20
2019-06-26T18:10:26.109Z,38.50
2019-06-26T18:12:54.076Z,39.50
2019-06-26T18:15:22.343Z,40.10
2019-06-26T18:17:50.405Z,39.60
2019-06-26T18:20:18.403Z,39.60
2019-06-26T18:22:46.640Z,38.70
2019-06-26T18:25:16.695Z,38.10
2019-06-26T18:27:44.841Z,38.40
2019-06-26T18:30:13.066Z,38.30
2019-06-26T18:32:41.143Z,38.30
2019-06-26T18:35:09.539Z,38.10
2019-06-26T18:37:37.532Z,37.50
2019-06-26T18:40:05.720Z,36.50
2019-06-26T18:42:33.686Z,36.50
2019-06-26T18:45:01.665Z,35.70
2019-06-26T18:47:30.652Z,35.70
2019-06-26T18:49:58.610Z,35.40
2019-06-26T18:52:27.062Z,34.80
2019-06-26T18:54:55.448Z,34.90
2019-06-26T18:57:23.515Z,35.20
2019-06-26T18:59:51.557Z,35.20
2019-06-26T19:02:19.566Z,34.90
2019-06-26T19:04:47.448Z,35.00
2019-06-26T19:07:15.525Z,34.70
2019-06-26T19:09:43.582Z,34.50
2019-06-26T19:12:11.551Z,34.20
2019-06-26T19:14:39.733Z,34.40
2019-06-26T19:17:07.775Z,34.00
2019-06-26T19:19:35.625Z,34.20
2019-06-26T19:22:04.045Z,33.50
2019-06-26T19:24:31.975Z,34.10
2019-06-26T19:26:59.984Z,33.50
2019-06-26T19:29:30.538Z,34.20
2019-06-26T19:31:58.507Z,33.80
2019-06-26T19:34:26.476Z,33.50
2019-06-26T19:36:54.407Z,33.70
2019-06-26T19:39:22.400Z,33.90
2019-06-26T19:41:50.542Z,33.70
2019-06-26T19:44:18.374Z,33.70
2019-06-26T19:46:46.301Z,33.20
2019-06-26T19:49:14.192Z,32.80
2019-06-26T19:51:42.180Z,33.00
2019-06-26T19:54:22.900Z,32.80
2019-06-26T19:56:54.321Z,32.80
2019-06-26T19:59:22.343Z,32.70
2019-06-26T20:01:51.442Z,32.50
2019-06-26T20:04:19.549Z,32.50
2019-06-26T20:06:48.615Z,32.60
2019-06-26T20:09:16.509Z,32.30
2019-06-26T20:11:44.550Z,32.50
2019-06-26T20:14:12.575Z,32.10
2019-06-26T20:16:40.585Z,32.30
2019-06-26T20:19:08.809Z,31.70
2019-06-26T20:21:37.183Z,32.30
2019-06-26T20:24:08.012Z,32.00
2019-06-26T20:26:36.186Z,32.20
2019-06-26T20:29:04.087Z,31.40
2019-06-26T20:31:32.861Z,31.50
2019-06-26T20:34:01.025Z,31.90
2019-06-26T20:36:29.153Z,31.70
2019-06-26T20:38:57.214Z,31.60
2019-06-26T20:41:25.472Z,31.80
2019-06-26T20:43:54.819Z,31.60
2019-06-26T20:46:25.597Z,31.30
2019-06-26T20:48:54.319Z,31.30
2019-06-26T20:51:22.637Z,30.90
2019-06-26T20:53:50.653Z,31.10
2019-06-26T20:56:18.724Z,30.90
2019-06-26T20:58:46.762Z,31.20
2019-06-26T21:01:14.929Z,30.80
2019-06-26T21:03:43.386Z,30.80
2019-06-26T21:06:13.540Z,30.70
2019-06-26T21:08:41.530Z,31.10
2019-06-26T21:11:09.529Z,30.80
2019-06-26T21:13:37.824Z,30.80
2019-06-26T21:16:06.153Z,30.40
2019-06-26T21:18:34.140Z,30.00
2019-06-26T21:21:02.219Z,30.50
2019-06-26T21:23:30.429Z,30.50
2019-06-26T21:25:58.632Z,30.20
2019-06-26T21:28:26.720Z,30.10
2019-06-26T21:30:55.301Z,29.80
2019-06-26T21:33:23.360Z,29.80
2019-06-26T21:35:51.698Z,30.60
2019-06-26T21:38:19.810Z,30.20
2019-06-26T21:40:48.773Z,30.10
2019-06-26T21:43:16.894Z,29.90
2019-06-26T21:45:45.043Z,30.20
2019-06-26T21:48:15.131Z,29.80
2019-06-26T21:50:43.887Z,30.10
2019-06-26T21:53:12.377Z,30.30
2019-06-26T21:55:42.080Z,30.20
2019-06-26T21:58:28.958Z,30.20
2019-06-26T22:01:15.942Z,29.50
2019-06-26T22:04:02.508Z,29.80
2019-06-26T22:06:35.604Z,29.90
2019-06-26T22:09:23.421Z,29.30
2019-06-26T22:11:52.668Z,29.00
2019-06-26T22:14:20.685Z,29.10
2019-06-26T22:16:48.727Z,29.20
2019-06-26T22:19:16.763Z,29.60
2019-06-26T22:21:44.799Z,29.40
2019-06-26T22:24:12.765Z,29.30
2019-06-26T22:26:41.897Z,29.00
2019-06-26T22:29:09.774Z,28.60
2019-06-26T22:31:37.821Z,28.50
2019-06-26T22:34:05.767Z,29.10
2019-06-26T22:36:33.672Z,28.60
2019-06-26T22:39:01.645Z,28.90
2019-06-26T22:41:31.784Z,28.90
2019-06-26T22:43:59.684Z,28.80
2019-06-26T22:46:27.638Z,28.60
2019-06-26T22:48:55.548Z,28.40
2019-06-26T22:51:23.562Z,28.90
2019-06-26T22:53:51.531Z,28.70
2019-06-26T22:56:19.439Z,29.00
2019-06-26T22:58:47.434Z,29.20
2019-06-26T23:01:15.376Z,28.50
2019-06-26T23:03:43.266Z,28.80
2019-06-26T23:06:11.145Z,28.50
2019-06-26T23:08:40.275Z,28.10
2019-06-26T23:11:08.206Z,28.20
2019-06-26T23:13:36.083Z,28.80
2019-06-26T23:16:04.244Z,28.30
2019-06-26T23:18:32.160Z,28.10
2019-06-26T23:21:00.019Z,28.20
2019-06-26T23:23:27.931Z,28.00
2019-06-26T23:25:55.851Z,27.80
2019-06-26T23:28:23.799Z,27.30
2019-06-26T23:30:51.751Z,27.40
2019-06-26T23:33:19.641Z,27.80
2019-06-26T23:35:47.629Z,27.90
2019-06-26T23:38:15.578Z,27.80
2019-06-26T23:40:44.571Z,27.70
2019-06-26T23:43:12.462Z,27.60
2019-06-26T23:45:40.658Z,26.90
2019-06-26T23:48:08.499Z,27.30
2019-06-26T23:50:36.402Z,26.90
2019-06-26T23:53:04.283Z,27.40
2019-06-26T23:55:32.167Z,27.00
2019-06-26T23:58:00.042Z,27.20
